createdAt,value
2023-03-17T00:02:53.684Z,-3.29
2023-03-17T00:05:59.499Z,-3.28
2023-03-17T00:09:03.788Z,-3.26
2023-03-17T00:12:12.012Z,-3.08
2023-03-17T00:15:15.588Z,-2.89
2023-03-17T00:18:20.743Z,-2.70
2023-03-17T00:21:29.111Z,-2.69
2023-03-17T00:24:33.067Z,-2.65
2023-03-17T00:27:35.998Z,-2.52
2023-03-17T00:30:39.697Z,-2.39
2023-03-17T00:33:43.599Z,-2.16
2023-03-17T00:36:51.659Z,-2.08
2023-03-17T00:39:58.551Z,-1.96
2023-03-17T00:43:03.352Z,-1.79
2023-03-17T00:46:25.792Z,-1.61
2023-03-17T00:49:29.774Z,-1.46
2023-03-17T00:52:34.038Z,-1.33
2023-03-17T00:55:38.160Z,-1.32
2023-03-17T00:58:42.674Z,-1.32
2023-03-17T01:01:46.830Z,-1.20
2023-03-17T01:04:59.509Z,-0.87
2023-03-17T01:08:07.132Z,-0.50
2023-03-17T01:11:19.261Z,-0.05
2023-03-17T01:14:23.987Z,0.34
2023-03-17T01:17:27.278Z,0.79
2023-03-17T01:20:36.747Z,1.14
2023-03-17T01:23:41.790Z,1.19
2023-03-17T01:26:45.896Z,1.27
2023-03-17T01:29:52.858Z,1.74
2023-03-17T01:32:58.780Z,2.36
2023-03-17T01:36:01.894Z,3.01
2023-03-17T01:39:05.818Z,3.36
2023-03-17T01:42:09.404Z,3.63
2023-03-17T01:45:50.240Z,3.76
2023-03-17T01:49:11.348Z,3.85
2023-03-17T01:52:17.200Z,3.48
2023-03-17T01:55:21.158Z,3.56
2023-03-17T01:58:27.069Z,4.32
2023-03-17T02:01:38.387Z,4.29
2023-03-17T02:04:41.838Z,3.99
2023-03-17T02:07:48.416Z,3.84
2023-03-17T02:10:53.238Z,3.44
2023-03-17T02:13:56.261Z,3.57
2023-03-17T02:17:00.481Z,4.90
2023-03-17T02:20:30.046Z,5.33
2023-03-17T02:23:33.272Z,4.99
2023-03-17T02:26:37.423Z,4.84
2023-03-17T02:29:42.991Z,5.93
2023-03-17T02:32:46.950Z,6.47
2023-03-17T02:35:50.027Z,7.04
2023-03-17T02:38:53.416Z,7.04
2023-03-17T02:41:56.488Z,8.20
2023-03-17T02:45:00.167Z,8.69
2023-03-17T02:48:03.276Z,7.95
2023-03-17T02:51:06.600Z,8.53
2023-03-17T02:54:10.334Z,9.53
2023-03-17T02:57:13.415Z,10.54
2023-03-17T03:00:17.120Z,10.83
2023-03-17T03:03:19.953Z,11.51
2023-03-17T03:06:24.541Z,11.14
2023-03-17T03:09:28.245Z,10.36
2023-03-17T03:12:31.522Z,9.76
2023-03-17T03:15:34.545Z,10.04
2023-03-17T03:18:38.393Z,9.83
2023-03-17T03:21:41.310Z,9.56
2023-03-17T03:24:44.648Z,9.51
2023-03-17T03:27:48.283Z,11.25
2023-03-17T03:30:51.871Z,11.24
2023-03-17T03:33:55.244Z,11.44
2023-03-17T03:36:59.052Z,11.98
2023-03-17T03:40:03.699Z,12.54
2023-03-17T03:43:22.049Z,12.96
2023-03-17T03:46:27.295Z,13.69
2023-03-17T03:49:30.984Z,13.87
2023-03-17T03:52:34.706Z,14.28
2023-03-17T03:55:37.761Z,12.23
2023-03-17T03:58:42.436Z,12.12
2023-03-17T04:01:46.581Z,12.37
2023-03-17T04:04:49.625Z,12.82
2023-03-17T04:07:53.115Z,13.26
2023-03-17T04:10:56.320Z,15.20
2023-03-17T04:14:00.522Z,16.30
2023-03-17T04:17:05.188Z,14.61
2023-03-17T04:20:09.308Z,13.29
2023-03-17T04:23:12.476Z,12.54
2023-03-17T04:26:18.394Z,13.59
2023-03-17T04:29:21.612Z,13.11
2023-03-17T04:32:27.133Z,13.46
2023-03-17T04:35:31.167Z,13.48
2023-03-17T04:38:35.266Z,11.70
2023-03-17T04:41:38.877Z,11.18
2023-03-17T04:44:44.011Z,11.87
2023-03-17T04:47:47.872Z,11.80
2023-03-17T04:50:52.476Z,12.50
2023-03-17T04:53:56.612Z,13.03
2023-03-17T04:56:59.680Z,13.13
2023-03-17T05:00:02.759Z,13.27
2023-03-17T05:03:23.870Z,15.11
2023-03-17T05:06:30.020Z,15.51
2023-03-17T05:09:33.448Z,15.56
2023-03-17T05:12:36.508Z,15.64
2023-03-17T05:15:41.209Z,14.78
2023-03-17T05:18:44.241Z,14.29
2023-03-17T05:21:48.210Z,14.29
2023-03-17T05:24:51.826Z,12.67
2023-03-17T05:27:54.874Z,12.70
2023-03-17T05:30:58.309Z,13.90
2023-03-17T05:34:02.022Z,14.39
2023-03-17T05:37:06.502Z,14.88
2023-03-17T05:40:13.331Z,16.33
2023-03-17T05:43:17.485Z,16.22
2023-03-17T05:46:21.398Z,17.60
2023-03-17T05:49:25.010Z,17.67
2023-03-17T05:52:29.444Z,21.35
2023-03-17T05:55:33.124Z,20.62
2023-03-17T05:58:36.792Z,21.94
2023-03-17T06:01:39.857Z,21.62
2023-03-17T06:04:44.136Z,22.47
2023-03-17T06:07:54.627Z,20.60
2023-03-17T06:10:59.238Z,19.73
2023-03-17T06:14:02.656Z,20.46
2023-03-17T06:17:06.113Z,21.11
2023-03-17T06:20:10.082Z,18.15
2023-03-17T06:23:13.608Z,16.28
2023-03-17T06:26:17.218Z,18.83
2023-03-17T06:29:20.889Z,22.19
2023-03-17T06:32:24.445Z,24.29
2023-03-17T06:35:28.537Z,26.23
2023-03-17T06:38:32.510Z,27.07
2023-03-17T06:41:35.789Z,25.72
2023-03-17T06:44:38.833Z,22.63
2023-03-17T06:47:42.224Z,22.55
2023-03-17T06:50:47.993Z,24.61
2023-03-17T06:53:51.581Z,22.79
2023-03-17T06:56:54.778Z,21.32
2023-03-17T06:59:57.808Z,18.31
2023-03-17T07:03:00.879Z,18.23
2023-03-17T07:06:05.074Z,18.61
2023-03-17T07:09:08.224Z,20.98
2023-03-17T07:12:12.277Z,23.49
2023-03-17T07:15:15.779Z,26.33
2023-03-17T07:18:19.752Z,23.85
2023-03-17T07:21:23.541Z,22.92
2023-03-17T07:24:27.244Z,22.82
2023-03-17T07:27:30.352Z,24.24
2023-03-17T07:30:34.349Z,26.39
2023-03-17T07:33:38.056Z,25.65
2023-03-17T07:36:41.294Z,23.44
2023-03-17T07:39:45.353Z,21.08
2023-03-17T07:42:49.409Z,22.39
2023-03-17T07:45:52.841Z,21.87
2023-03-17T07:48:56.273Z,20.42
2023-03-17T07:51:59.555Z,20.88
2023-03-17T07:55:04.108Z,19.83
2023-03-17T07:58:08.172Z,18.78
2023-03-17T08:01:11.669Z,19.92
2023-03-17T08:04:15.260Z,19.70
2023-03-17T08:07:19.484Z,19.36
2023-03-17T08:10:23.448Z,19.67
2023-03-17T08:13:26.908Z,19.46
2023-03-17T08:16:31.556Z,17.97
2023-03-17T08:19:35.355Z,16.81
2023-03-17T08:22:38.455Z,17.31
2023-03-17T08:25:42.770Z,20.20
2023-03-17T08:28:46.775Z,21.51
2023-03-17T08:31:50.603Z,20.55
2023-03-17T08:34:55.398Z,22.03
2023-03-17T08:37:59.512Z,24.06
2023-03-17T08:41:08.589Z,24.66
2023-03-17T08:44:12.684Z,21.04
2023-03-17T08:47:16.840Z,21.18
2023-03-17T08:50:24.385Z,22.59
2023-03-17T08:53:27.815Z,23.33
2023-03-17T08:56:32.088Z,22.56
2023-03-17T08:59:35.977Z,23.26
2023-03-17T09:02:43.563Z,24.15
2023-03-17T09:05:48.445Z,23.25
2023-03-17T09:08:56.204Z,23.46
2023-03-17T09:11:59.870Z,24.18
2023-03-17T09:15:03.378Z,23.84
2023-03-17T09:18:08.174Z,22.64
2023-03-17T09:21:13.571Z,22.91
2023-03-17T09:24:16.769Z,21.74
2023-03-17T09:27:20.920Z,21.32
2023-03-17T09:30:24.095Z,22.09
2023-03-17T09:33:28.065Z,18.90
2023-03-17T09:36:31.345Z,17.29
2023-03-17T09:39:35.034Z,17.16
2023-03-17T09:42:53.343Z,15.10
2023-03-17T09:45:57.485Z,13.10
2023-03-17T09:49:03.989Z,12.20
2023-03-17T09:52:14.656Z,11.20
2023-03-17T09:55:27.564Z,10.67
2023-03-17T09:58:36.467Z,10.29
2023-03-17T10:01:43.539Z,9.90
2023-03-17T10:04:48.393Z,9.75
2023-03-17T10:08:31.753Z,9.57
2023-03-17T10:11:43.163Z,9.27
2023-03-17T10:15:03.635Z,9.23
2023-03-17T10:18:14.454Z,8.99
2023-03-17T10:21:32.222Z,8.81
2023-03-17T10:24:36.908Z,8.53
2023-03-17T10:27:41.824Z,8.25
2023-03-17T10:30:45.423Z,8.14
2023-03-17T10:33:53.436Z,8.06
2023-03-17T10:37:04.690Z,7.85
2023-03-17T10:40:11.544Z,7.75
2023-03-17T10:43:21.080Z,7.56
2023-03-17T10:46:27.723Z,7.17
2023-03-17T10:49:37.546Z,6.85
2023-03-17T10:52:41.495Z,6.46
2023-03-17T10:55:51.991Z,6.31
2023-03-17T10:58:57.498Z,6.29
2023-03-17T11:02:08.595Z,6.22
2023-03-17T11:05:28.279Z,6.16
2023-03-17T11:08:39.309Z,6.06
2023-03-17T11:11:51.487Z,6.12
2023-03-17T11:15:09.956Z,6.04
2023-03-17T11:18:19.909Z,5.91
2023-03-17T11:22:06.439Z,5.99
2023-03-17T11:25:29.579Z,5.91
2023-03-17T11:28:44.331Z,5.86
2023-03-17T11:32:00.088Z,5.89
2023-03-17T11:35:35.709Z,5.86
2023-03-17T11:38:53.520Z,5.76
2023-03-17T11:42:29.441Z,5.58
2023-03-17T11:45:41.539Z,5.53
2023-03-17T11:48:55.908Z,5.52
2023-03-17T11:52:30.992Z,5.45
2023-03-17T11:55:48.323Z,5.28
2023-03-17T11:59:21.128Z,5.16
2023-03-17T12:02:43.248Z,5.12
2023-03-17T12:05:56.161Z,5.14
2023-03-17T12:09:28.210Z,5.16
2023-03-17T12:12:40.264Z,5.14
2023-03-17T12:15:43.984Z,5.04
2023-03-17T12:19:01.623Z,4.98
2023-03-17T12:22:14.128Z,4.89
2023-03-17T12:25:35.627Z,4.83
2023-03-17T12:28:59.316Z,4.88
2023-03-17T12:32:10.318Z,4.83
2023-03-17T12:35:19.529Z,4.66
2023-03-17T12:38:41.215Z,4.45
2023-03-17T12:42:03.339Z,4.42
2023-03-17T12:45:29.682Z,4.44
2023-03-17T12:48:51.168Z,4.38
2023-03-17T12:52:21.565Z,4.27
2023-03-17T12:55:27.540Z,4.20
2023-03-17T12:58:41.495Z,4.09
2023-03-17T13:01:58.542Z,4.01
2023-03-17T13:05:09.688Z,3.98
2023-03-17T13:08:18.638Z,4.02
2023-03-17T13:11:46.310Z,4.10
2023-03-17T13:14:52.599Z,4.01
2023-03-17T13:18:28.012Z,3.99
2023-03-17T13:21:34.631Z,3.96
2023-03-17T13:24:47.433Z,3.93
2023-03-17T13:27:51.089Z,3.78
2023-03-17T13:31:16.975Z,3.62
2023-03-17T13:34:21.751Z,3.63
2023-03-17T13:37:24.818Z,3.64
2023-03-17T13:40:45.783Z,3.67
2023-03-17T13:44:13.524Z,3.46
2023-03-17T13:47:39.320Z,3.44
2023-03-17T13:50:43.578Z,3.31
2023-03-17T13:53:49.993Z,3.28
2023-03-17T13:56:55.382Z,3.24
2023-03-17T14:00:06.124Z,3.24
2023-03-17T14:03:16.929Z,3.07
2023-03-17T14:06:28.987Z,3.06
2023-03-17T14:09:42.677Z,3.01
2023-03-17T14:13:26.429Z,3.12
2023-03-17T14:16:37.467Z,3.01
2023-03-17T14:19:44.148Z,2.86
2023-03-17T14:22:49.465Z,2.90
2023-03-17T14:25:56.934Z,2.92
2023-03-17T14:29:01.928Z,3.01
2023-03-17T14:32:15.363Z,3.06
2023-03-17T14:35:19.146Z,3.10
2023-03-17T14:38:24.825Z,3.09
2023-03-17T14:41:31.771Z,3.06
2023-03-17T14:44:38.888Z,3.07
2023-03-17T14:47:45.990Z,2.99
2023-03-17T14:50:56.353Z,3.05
2023-03-17T14:54:02.527Z,3.12
2023-03-17T14:57:09.356Z,3.06
2023-03-17T15:00:38.116Z,3.06
2023-03-17T15:03:57.480Z,2.96
2023-03-17T15:07:04.536Z,2.92
2023-03-17T15:10:20.223Z,2.85
2023-03-17T15:13:26.754Z,2.66
2023-03-17T15:16:34.922Z,2.47
2023-03-17T15:19:48.450Z,2.28
2023-03-17T15:23:15.584Z,2.23
2023-03-17T15:26:32.147Z,2.20
2023-03-17T15:29:37.059Z,2.17
2023-03-17T15:32:41.097Z,2.19
2023-03-17T15:35:45.284Z,2.28
2023-03-17T15:38:48.409Z,2.30
2023-03-17T15:41:51.900Z,2.22
2023-03-17T15:44:56.107Z,2.36
2023-03-17T15:48:00.234Z,2.37
2023-03-17T15:51:05.688Z,2.36
2023-03-17T15:54:15.257Z,2.36
2023-03-17T15:57:19.682Z,2.31
2023-03-17T16:00:25.453Z,2.26
2023-03-17T16:03:33.987Z,2.21
2023-03-17T16:06:37.173Z,2.19
2023-03-17T16:09:40.827Z,2.15
2023-03-17T16:12:44.271Z,2.12
2023-03-17T16:16:00.508Z,2.11
2023-03-17T16:19:06.507Z,2.04
2023-03-17T16:22:37.962Z,2.00
2023-03-17T16:25:41.616Z,1.95
2023-03-17T16:28:48.257Z,1.95
2023-03-17T16:31:52.273Z,1.94
2023-03-17T16:34:56.024Z,1.95
2023-03-17T16:37:59.895Z,1.92
2023-03-17T16:41:31.338Z,1.89
2023-03-17T16:44:35.656Z,1.79
2023-03-17T16:47:38.720Z,1.74
2023-03-17T16:50:43.373Z,1.83
2023-03-17T16:53:46.532Z,1.83
2023-03-17T16:56:50.340Z,1.84
2023-03-17T16:59:56.679Z,1.79
2023-03-17T17:03:00.125Z,1.78
2023-03-17T17:06:03.529Z,1.75
2023-03-17T17:09:07.429Z,1.71
2023-03-17T17:12:12.445Z,1.68
2023-03-17T17:15:17.816Z,1.71
2023-03-17T17:18:22.893Z,1.65
2023-03-17T17:21:31.113Z,1.55
2023-03-17T17:24:35.019Z,1.50
2023-03-17T17:27:39.633Z,1.51
2023-03-17T17:30:46.133Z,1.45
2023-03-17T17:33:50.026Z,1.40
2023-03-17T17:36:53.528Z,1.37
2023-03-17T17:39:57.690Z,1.32
2023-03-17T17:43:00.943Z,1.29
2023-03-17T17:46:05.088Z,1.28
2023-03-17T17:49:09.179Z,1.27
2023-03-17T17:52:13.215Z,1.17
2023-03-17T17:55:17.388Z,1.05
2023-03-17T17:58:24.329Z,1.03
2023-03-17T18:01:28.274Z,0.93
2023-03-17T18:04:32.534Z,0.85
2023-03-17T18:07:36.754Z,0.88
2023-03-17T18:10:40.828Z,0.86
2023-03-17T18:13:44.571Z,0.81
2023-03-17T18:16:48.570Z,0.78
2023-03-17T18:19:56.178Z,0.75
2023-03-17T18:23:00.364Z,0.76
2023-03-17T18:26:04.656Z,0.76
2023-03-17T18:29:09.712Z,0.71
2023-03-17T18:32:13.810Z,0.61
2023-03-17T18:35:20.905Z,0.69
2023-03-17T18:38:24.762Z,0.64
2023-03-17T18:41:29.043Z,0.62
2023-03-17T18:44:33.100Z,0.56
2023-03-17T18:47:38.612Z,0.42
2023-03-17T18:50:41.902Z,0.43
2023-03-17T18:53:46.233Z,0.42
2023-03-17T18:56:49.774Z,0.35
2023-03-17T18:59:53.964Z,0.26
2023-03-17T19:02:57.797Z,0.23
2023-03-17T19:06:15.469Z,0.17
2023-03-17T19:09:18.512Z,0.07
2023-03-17T19:12:21.965Z,-0.07
2023-03-17T19:15:24.997Z,-0.12
2023-03-17T19:18:28.662Z,-0.11
2023-03-17T19:21:31.689Z,-0.09
2023-03-17T19:24:37.117Z,-0.07
2023-03-17T19:27:40.571Z,-0.14
2023-03-17T19:30:45.972Z,-0.13
2023-03-17T19:33:49.651Z,-0.05
2023-03-17T19:36:53.613Z,-0.03
2023-03-17T19:39:57.231Z,-0.21
2023-03-17T19:43:01.295Z,-0.17
2023-03-17T19:46:04.507Z,-0.18
2023-03-17T19:49:07.967Z,-0.27
2023-03-17T19:52:11.664Z,-0.30
2023-03-17T19:55:17.041Z,-0.23
2023-03-17T19:58:20.760Z,-0.26
2023-03-17T20:01:25.088Z,-0.21
2023-03-17T20:04:29.090Z,-0.20
2023-03-17T20:07:33.734Z,-0.26
2023-03-17T20:10:38.883Z,-0.31
2023-03-17T20:13:42.370Z,-0.31
2023-03-17T20:16:46.674Z,-0.33
2023-03-17T20:19:49.966Z,-0.31
2023-03-17T20:22:53.686Z,-0.32
2023-03-17T20:25:58.237Z,-0.33
2023-03-17T20:29:02.672Z,-0.35
2023-03-17T20:32:06.829Z,-0.45
2023-03-17T20:35:10.216Z,-0.46
2023-03-17T20:38:15.526Z,-0.45
2023-03-17T20:41:20.156Z,-0.39
2023-03-17T20:44:24.864Z,-0.31
2023-03-17T20:47:28.914Z,-0.31
2023-03-17T20:50:35.322Z,-0.38
2023-03-17T20:53:39.513Z,-0.37
2023-03-17T20:56:43.523Z,-0.40
2023-03-17T20:59:47.619Z,-0.38
2023-03-17T21:02:52.116Z,-0.42
2023-03-17T21:05:56.444Z,-0.37
2023-03-17T21:08:59.699Z,-0.36
2023-03-17T21:12:03.033Z,-0.46
2023-03-17T21:15:11.093Z,-0.39
2023-03-17T21:18:15.084Z,-0.43
2023-03-17T21:21:20.125Z,-0.50
2023-03-17T21:24:32.296Z,-0.54
2023-03-17T21:27:38.598Z,-0.58
2023-03-17T21:30:45.434Z,-0.67
2023-03-17T21:33:51.440Z,-0.76
2023-03-17T21:36:55.338Z,-0.71
2023-03-17T21:39:59.657Z,-0.72
2023-03-17T21:43:03.555Z,-0.75
2023-03-17T21:46:07.102Z,-0.67
2023-03-17T21:49:12.204Z,-0.71
2023-03-17T21:52:16.451Z,-0.77
2023-03-17T21:55:20.020Z,-0.76
2023-03-17T21:58:24.726Z,-0.79
2023-03-17T22:01:28.622Z,-0.79
2023-03-17T22:04:32.813Z,-0.82
2023-03-17T22:07:36.753Z,-0.91
2023-03-17T22:10:41.583Z,-0.86
2023-03-17T22:13:45.659Z,-0.84
2023-03-17T22:16:50.611Z,-0.85
2023-03-17T22:19:54.536Z,-0.86
2023-03-17T22:22:58.631Z,-0.95
2023-03-17T22:26:02.063Z,-1.10
2023-03-17T22:29:06.659Z,-1.14
2023-03-17T22:32:11.354Z,-1.21
2023-03-17T22:35:15.072Z,-1.30
2023-03-17T22:38:18.906Z,-1.35
2023-03-17T22:41:25.537Z,-1.35
2023-03-17T22:44:28.908Z,-1.34
2023-03-17T22:47:33.060Z,-1.37
2023-03-17T22:50:37.115Z,-1.48
2023-03-17T22:53:41.480Z,-1.54
2023-03-17T22:56:45.865Z,-1.57
2023-03-17T22:59:49.954Z,-1.63
2023-03-17T23:02:53.060Z,-1.69
2023-03-17T23:06:00.558Z,-1.69
2023-03-17T23:09:05.373Z,-1.83
2023-03-17T23:12:10.249Z,-1.82
2023-03-17T23:15:13.963Z,-1.91
2023-03-17T23:18:19.025Z,-1.92
2023-03-17T23:21:38.497Z,-1.97
2023-03-17T23:24:42.513Z,-2.10
2023-03-17T23:27:47.760Z,-2.01
2023-03-17T23:30:51.658Z,-1.84
2023-03-17T23:33:55.598Z,-1.72
2023-03-17T23:36:59.964Z,-1.56
2023-03-17T23:40:03.518Z,-1.38
2023-03-17T23:43:07.598Z,-1.22
2023-03-17T23:46:11.953Z,-1.10
2023-03-17T23:49:15.682Z,-0.95
2023-03-17T23:52:19.620Z,-0.84
2023-03-17T23:55:24.186Z,-0.79
2023-03-17T23:58:28.183Z,-0.72
